sensor_id;sensor_type;location;lat;lon;timestamp;P1;durP1;ratioP1;P2;durP2;ratioP2
18505;SDS011;9382;53.242;10.438;2023-04-03T00:00:25;7.23;;;3.67;;
18505;SDS011;9382;53.242;10.438;2023-04-03T00:02:53;9.07;;;3.00;;
18505;SDS011;9382;53.242;10.438;2023-04-03T00:05:20;6.93;;;3.20;;
18505;SDS011;9382;53.242;10.438;2023-04-03T00:07:47;6.43;;;3.20;;
18505;SDS011;9382;53.242;10.438;2023-04-03T00:10:14;9.83;;;2.90;;
18505;SDS011;9382;53.242;10.438;2023-04-03T00:12:41;5.43;;;2.70;;
18505;SDS011;9382;53.242;10.438;2023-04-03T00:15:08;11.97;;;3.53;;
18505;SDS011;9382;53.242;10.438;2023-04-03T00:17:35;9.83;;;3.30;;
18505;SDS011;9382;53.242;10.438;2023-04-03T00:20:04;7.67;;;3.20;;
18505;SDS011;9382;53.242;10.438;2023-04-03T00:22:31;6.93;;;3.10;;
18505;SDS011;9382;53.242;10.438;2023-04-03T00:24:58;9.43;;;3.00;;
18505;SDS011;9382;53.242;10.438;2023-04-03T00:27:25;11.07;;;3.33;;
18505;SDS011;9382;53.242;10.438;2023-04-03T00:29:52;6.37;;;3.10;;
18505;SDS011;9382;53.242;10.438;2023-04-03T00:32:18;8.07;;;3.40;;
18505;SDS011;9382;53.242;10.438;2023-04-03T00:34:45;6.60;;;3.10;;
18505;SDS011;9382;53.242;10.438;2023-04-03T00:37:13;8.67;;;3.30;;
18505;SDS011;9382;53.242;10.438;2023-04-03T00:39:40;4.97;;;2.60;;
18505;SDS011;9382;53.242;10.438;2023-04-03T00:42:06;10.37;;;3.97;;
18505;SDS011;9382;53.242;10.438;2023-04-03T00:47:37;5.17;;;2.93;;
18505;SDS011;9382;53.242;10.438;2023-04-03T00:50:06;10.47;;;4.17;;
18505;SDS011;9382;53.242;10.438;2023-04-03T00:52:34;9.97;;;2.80;;
18505;SDS011;9382;53.242;10.438;2023-04-03T00:55:04;7.77;;;3.00;;
18505;SDS011;9382;53.242;10.438;2023-04-03T00:57:34;9.63;;;3.17;;
18505;SDS011;9382;53.242;10.438;2023-04-03T01:00:02;8.13;;;3.33;;
18505;SDS011;9382;53.242;10.438;2023-04-03T01:02:34;8.37;;;3.30;;
18505;SDS011;9382;53.242;10.438;2023-04-03T01:05:01;8.73;;;3.67;;
18505;SDS011;9382;53.242;10.438;2023-04-03T01:07:29;9.97;;;3.50;;
18505;SDS011;9382;53.242;10.438;2023-04-03T01:10:00;6.33;;;2.90;;
18505;SDS011;9382;53.242;10.438;2023-04-03T01:12:29;9.63;;;3.70;;
18505;SDS011;9382;53.242;10.438;2023-04-03T01:14:57;7.83;;;3.43;;
18505;SDS011;9382;53.242;10.438;2023-04-03T01:17:29;9.60;;;3.33;;
18505;SDS011;9382;53.242;10.438;2023-04-03T01:20:02;9.77;;;3.47;;
18505;SDS011;9382;53.242;10.438;2023-04-03T01:22:59;7.20;;;3.80;;
18505;SDS011;9382;53.242;10.438;2023-04-03T01:25:39;7.97;;;3.10;;
18505;SDS011;9382;53.242;10.438;2023-04-03T01:28:07;7.90;;;3.50;;
18505;SDS011;9382;53.242;10.438;2023-04-03T01:30:38;14.20;;;3.97;;
18505;SDS011;9382;53.242;10.438;2023-04-03T01:33:10;7.47;;;3.97;;
18505;SDS011;9382;53.242;10.438;2023-04-03T01:35:37;5.27;;;3.10;;
18505;SDS011;9382;53.242;10.438;2023-04-03T01:38:03;7.63;;;3.23;;
18505;SDS011;9382;53.242;10.438;2023-04-03T01:40:30;7.70;;;3.33;;
18505;SDS011;9382;53.242;10.438;2023-04-03T01:42:57;9.47;;;3.50;;
18505;SDS011;9382;53.242;10.438;2023-04-03T01:45:24;6.80;;;3.50;;
18505;SDS011;9382;53.242;10.438;2023-04-03T01:47:51;7.83;;;3.47;;
18505;SDS011;9382;53.242;10.438;2023-04-03T01:50:20;14.03;;;3.70;;
18505;SDS011;9382;53.242;10.438;2023-04-03T01:52:47;11.43;;;3.70;;
18505;SDS011;9382;53.242;10.438;2023-04-03T01:55:13;11.33;;;3.80;;
18505;SDS011;9382;53.242;10.438;2023-04-03T01:57:40;8.13;;;3.30;;
18505;SDS011;9382;53.242;10.438;2023-04-03T02:00:07;9.03;;;3.40;;
18505;SDS011;9382;53.242;10.438;2023-04-03T02:02:35;10.60;;;3.87;;
18505;SDS011;9382;53.242;10.438;2023-04-03T02:05:02;11.53;;;3.70;;
18505;SDS011;9382;53.242;10.438;2023-04-03T02:07:30;8.93;;;3.70;;
18505;SDS011;9382;53.242;10.438;2023-04-03T02:09:57;8.67;;;3.57;;
18505;SDS011;9382;53.242;10.438;2023-04-03T02:12:24;8.50;;;3.60;;
18505;SDS011;9382;53.242;10.438;2023-04-03T02:14:51;10.63;;;3.60;;
18505;SDS011;9382;53.242;10.438;2023-04-03T02:17:17;9.30;;;3.50;;
18505;SDS011;9382;53.242;10.438;2023-04-03T02:19:44;10.87;;;3.73;;
18505;SDS011;9382;53.242;10.438;2023-04-03T02:22:11;16.30;;;4.00;;
18505;SDS011;9382;53.242;10.438;2023-04-03T02:24:39;8.40;;;3.67;;
18505;SDS011;9382;53.242;10.438;2023-04-03T02:27:06;7.13;;;3.50;;
18505;SDS011;9382;53.242;10.438;2023-04-03T02:29:33;9.47;;;3.60;;
18505;SDS011;9382;53.242;10.438;2023-04-03T02:31:59;8.17;;;3.97;;
18505;SDS011;9382;53.242;10.438;2023-04-03T02:34:26;9.27;;;3.90;;
18505;SDS011;9382;53.242;10.438;2023-04-03T02:36:53;6.63;;;3.50;;
18505;SDS011;9382;53.242;10.438;2023-04-03T02:39:20;11.77;;;3.97;;
18505;SDS011;9382;53.242;10.438;2023-04-03T02:41:48;11.63;;;4.30;;
18505;SDS011;9382;53.242;10.438;2023-04-03T02:44:14;8.13;;;3.80;;
18505;SDS011;9382;53.242;10.438;2023-04-03T02:46:41;11.17;;;3.70;;
18505;SDS011;9382;53.242;10.438;2023-04-03T02:49:08;10.33;;;3.63;;
18505;SDS011;9382;53.242;10.438;2023-04-03T02:51:35;10.00;;;3.47;;
18505;SDS011;9382;53.242;10.438;2023-04-03T02:54:01;9.73;;;3.93;;
18505;SDS011;9382;53.242;10.438;2023-04-03T02:56:28;15.20;;;4.17;;
18505;SDS011;9382;53.242;10.438;2023-04-03T02:58:56;11.40;;;3.90;;
18505;SDS011;9382;53.242;10.438;2023-04-03T03:01:23;12.90;;;4.17;;
18505;SDS011;9382;53.242;10.438;2023-04-03T03:03:53;8.87;;;3.80;;
18505;SDS011;9382;53.242;10.438;2023-04-03T03:06:20;11.67;;;3.77;;
18505;SDS011;9382;53.242;10.438;2023-04-03T03:08:46;12.90;;;3.97;;
18505;SDS011;9382;53.242;10.438;2023-04-03T03:11:13;7.50;;;3.77;;
18505;SDS011;9382;53.242;10.438;2023-04-03T03:13:40;8.27;;;3.70;;
18505;SDS011;9382;53.242;10.438;2023-04-03T03:16:08;9.23;;;3.97;;
18505;SDS011;9382;53.242;10.438;2023-04-03T03:18:35;11.47;;;3.67;;
18505;SDS011;9382;53.242;10.438;2023-04-03T03:21:02;6.60;;;3.70;;
18505;SDS011;9382;53.242;10.438;2023-04-03T03:23:30;8.93;;;3.80;;
18505;SDS011;9382;53.242;10.438;2023-04-03T03:25:58;12.80;;;4.03;;
18505;SDS011;9382;53.242;10.438;2023-04-03T03:28:27;9.30;;;3.57;;
18505;SDS011;9382;53.242;10.438;2023-04-03T03:30:54;11.20;;;3.70;;
18505;SDS011;9382;53.242;10.438;2023-04-03T03:33:22;13.50;;;3.77;;
18505;SDS011;9382;53.242;10.438;2023-04-03T03:35:50;5.83;;;3.77;;
18505;SDS011;9382;53.242;10.438;2023-04-03T03:38:17;9.07;;;3.83;;
18505;SDS011;9382;53.242;10.438;2023-04-03T03:40:44;8.67;;;3.60;;
18505;SDS011;9382;53.242;10.438;2023-04-03T03:43:10;9.10;;;4.00;;
18505;SDS011;9382;53.242;10.438;2023-04-03T03:45:37;12.53;;;4.53;;
18505;SDS011;9382;53.242;10.438;2023-04-03T03:48:04;8.10;;;3.83;;
18505;SDS011;9382;53.242;10.438;2023-04-03T03:50:32;11.83;;;4.00;;
18505;SDS011;9382;53.242;10.438;2023-04-03T03:52:59;7.23;;;3.77;;
18505;SDS011;9382;53.242;10.438;2023-04-03T03:55:26;10.73;;;4.10;;
18505;SDS011;9382;53.242;10.438;2023-04-03T03:57:53;9.20;;;3.77;;
18505;SDS011;9382;53.242;10.438;2023-04-03T04:00:20;7.73;;;3.70;;
18505;SDS011;9382;53.242;10.438;2023-04-03T04:02:47;10.20;;;4.10;;
18505;SDS011;9382;53.242;10.438;2023-04-03T04:05:13;12.17;;;3.73;;
18505;SDS011;9382;53.242;10.438;2023-04-03T04:07:41;10.80;;;4.30;;
18505;SDS011;9382;53.242;10.438;2023-04-03T04:10:09;11.73;;;4.43;;
18505;SDS011;9382;53.242;10.438;2023-04-03T04:12:36;11.00;;;4.43;;
18505;SDS011;9382;53.242;10.438;2023-04-03T04:15:03;7.73;;;3.93;;
18505;SDS011;9382;53.242;10.438;2023-04-03T04:17:30;9.27;;;3.93;;
18505;SDS011;9382;53.242;10.438;2023-04-03T04:19:56;5.10;;;3.60;;
18505;SDS011;9382;53.242;10.438;2023-04-03T04:22:23;7.70;;;4.03;;
18505;SDS011;9382;53.242;10.438;2023-04-03T04:24:51;7.97;;;3.90;;
18505;SDS011;9382;53.242;10.438;2023-04-03T04:27:18;6.67;;;3.63;;
18505;SDS011;9382;53.242;10.438;2023-04-03T04:29:45;9.33;;;3.70;;
18505;SDS011;9382;53.242;10.438;2023-04-03T04:32:11;9.53;;;3.70;;
18505;SDS011;9382;53.242;10.438;2023-04-03T04:34:38;9.13;;;3.87;;
18505;SDS011;9382;53.242;10.438;2023-04-03T04:37:05;9.90;;;4.23;;
18505;SDS011;9382;53.242;10.438;2023-04-03T04:39:32;8.33;;;3.90;;
18505;SDS011;9382;53.242;10.438;2023-04-03T04:42:01;6.47;;;3.70;;
18505;SDS011;9382;53.242;10.438;2023-04-03T04:44:27;10.20;;;4.13;;
18505;SDS011;9382;53.242;10.438;2023-04-03T04:46:54;8.50;;;4.80;;
18505;SDS011;9382;53.242;10.438;2023-04-03T04:49:21;10.87;;;4.10;;
18505;SDS011;9382;53.242;10.438;2023-04-03T04:51:47;8.43;;;4.03;;
18505;SDS011;9382;53.242;10.438;2023-04-03T04:54:14;8.23;;;4.20;;
18505;SDS011;9382;53.242;10.438;2023-04-03T04:56:41;11.80;;;4.37;;
18505;SDS011;9382;53.242;10.438;2023-04-03T04:59:09;7.43;;;4.07;;
18505;SDS011;9382;53.242;10.438;2023-04-03T05:01:36;7.83;;;3.90;;
18505;SDS011;9382;53.242;10.438;2023-04-03T05:04:02;7.30;;;3.90;;
18505;SDS011;9382;53.242;10.438;2023-04-03T05:06:29;10.73;;;4.03;;
18505;SDS011;9382;53.242;10.438;2023-04-03T05:08:57;9.40;;;3.73;;
18505;SDS011;9382;53.242;10.438;2023-04-03T05:11:23;7.40;;;3.93;;
18505;SDS011;9382;53.242;10.438;2023-04-03T05:13:50;9.10;;;4.27;;
18505;SDS011;9382;53.242;10.438;2023-04-03T05:16:18;8.17;;;3.87;;
18505;SDS011;9382;53.242;10.438;2023-04-03T05:18:45;9.17;;;4.00;;
18505;SDS011;9382;53.242;10.438;2023-04-03T05:21:12;10.83;;;3.97;;
18505;SDS011;9382;53.242;10.438;2023-04-03T05:23:39;12.57;;;4.10;;
18505;SDS011;9382;53.242;10.438;2023-04-03T05:26:05;9.83;;;4.20;;
18505;SDS011;9382;53.242;10.438;2023-04-03T05:28:32;10.50;;;4.50;;
18505;SDS011;9382;53.242;10.438;2023-04-03T05:30:59;8.40;;;4.13;;
18505;SDS011;9382;53.242;10.438;2023-04-03T05:33:27;11.97;;;4.63;;
18505;SDS011;9382;53.242;10.438;2023-04-03T05:35:54;7.50;;;4.47;;
18505;SDS011;9382;53.242;10.438;2023-04-03T05:38:21;12.50;;;4.67;;
18505;SDS011;9382;53.242;10.438;2023-04-03T05:40:48;9.57;;;4.03;;
18505;SDS011;9382;53.242;10.438;2023-04-03T05:43:15;8.50;;;4.17;;
18505;SDS011;9382;53.242;10.438;2023-04-03T05:45:42;10.97;;;4.10;;
18505;SDS011;9382;53.242;10.438;2023-04-03T05:48:09;11.23;;;4.60;;
18505;SDS011;9382;53.242;10.438;2023-04-03T05:50:37;15.90;;;5.10;;
18505;SDS011;9382;53.242;10.438;2023-04-03T05:53:06;13.87;;;5.20;;
18505;SDS011;9382;53.242;10.438;2023-04-03T05:55:40;13.33;;;5.30;;
18505;SDS011;9382;53.242;10.438;2023-04-03T05:58:06;15.27;;;4.70;;
18505;SDS011;9382;53.242;10.438;2023-04-03T06:00:33;10.67;;;4.40;;
18505;SDS011;9382;53.242;10.438;2023-04-03T06:03:00;6.83;;;4.00;;
18505;SDS011;9382;53.242;10.438;2023-04-03T06:05:27;6.53;;;3.70;;
18505;SDS011;9382;53.242;10.438;2023-04-03T06:07:55;6.77;;;4.43;;
18505;SDS011;9382;53.242;10.438;2023-04-03T06:10:22;8.30;;;3.97;;
18505;SDS011;9382;53.242;10.438;2023-04-03T06:12:49;15.53;;;4.30;;
18505;SDS011;9382;53.242;10.438;2023-04-03T06:15:16;9.73;;;4.07;;
18505;SDS011;9382;53.242;10.438;2023-04-03T06:17:43;11.80;;;4.30;;
18505;SDS011;9382;53.242;10.438;2023-04-03T06:20:10;12.20;;;4.30;;
18505;SDS011;9382;53.242;10.438;2023-04-03T06:22:38;6.33;;;3.53;;
18505;SDS011;9382;53.242;10.438;2023-04-03T06:25:08;10.27;;;3.87;;
18505;SDS011;9382;53.242;10.438;2023-04-03T06:27:35;13.53;;;3.87;;
18505;SDS011;9382;53.242;10.438;2023-04-03T06:30:03;6.20;;;3.63;;
18505;SDS011;9382;53.242;10.438;2023-04-03T06:32:31;11.20;;;3.50;;
18505;SDS011;9382;53.242;10.438;2023-04-03T06:34:58;7.73;;;3.50;;
18505;SDS011;9382;53.242;10.438;2023-04-03T06:37:25;8.53;;;3.47;;
18505;SDS011;9382;53.242;10.438;2023-04-03T06:39:53;8.57;;;3.60;;
18505;SDS011;9382;53.242;10.438;2023-04-03T06:42:22;6.50;;;3.17;;
18505;SDS011;9382;53.242;10.438;2023-04-03T06:44:49;7.93;;;3.07;;
18505;SDS011;9382;53.242;10.438;2023-04-03T06:47:16;6.30;;;2.63;;
18505;SDS011;9382;53.242;10.438;2023-04-03T06:49:43;8.07;;;3.03;;
18505;SDS011;9382;53.242;10.438;2023-04-03T06:52:10;9.70;;;2.87;;
18505;SDS011;9382;53.242;10.438;2023-04-03T06:54:38;4.67;;;2.83;;
18505;SDS011;9382;53.242;10.438;2023-04-03T06:57:05;5.60;;;2.97;;
18505;SDS011;9382;53.242;10.438;2023-04-03T06:59:33;5.93;;;2.80;;
18505;SDS011;9382;53.242;10.438;2023-04-03T07:02:00;7.03;;;2.90;;
18505;SDS011;9382;53.242;10.438;2023-04-03T07:04:27;9.23;;;3.17;;
18505;SDS011;9382;53.242;10.438;2023-04-03T07:06:53;5.53;;;2.83;;
18505;SDS011;9382;53.242;10.438;2023-04-03T07:09:20;5.23;;;2.30;;
18505;SDS011;9382;53.242;10.438;2023-04-03T07:11:47;5.80;;;2.80;;
18505;SDS011;9382;53.242;10.438;2023-04-03T07:14:14;8.87;;;3.43;;
18505;SDS011;9382;53.242;10.438;2023-04-03T07:16:42;5.63;;;3.07;;
18505;SDS011;9382;53.242;10.438;2023-04-03T07:19:09;5.37;;;2.67;;
18505;SDS011;9382;53.242;10.438;2023-04-03T07:21:36;5.47;;;2.40;;
18505;SDS011;9382;53.242;10.438;2023-04-03T07:24:03;4.37;;;2.20;;
18505;SDS011;9382;53.242;10.438;2023-04-03T07:26:30;5.60;;;2.20;;
18505;SDS011;9382;53.242;10.438;2023-04-03T07:28:57;4.43;;;2.73;;
18505;SDS011;9382;53.242;10.438;2023-04-03T07:31:24;5.07;;;2.40;;
18505;SDS011;9382;53.242;10.438;2023-04-03T07:33:52;4.87;;;2.30;;
18505;SDS011;9382;53.242;10.438;2023-04-03T07:36:20;3.43;;;2.60;;
18505;SDS011;9382;53.242;10.438;2023-04-03T07:38:47;3.90;;;2.00;;
18505;SDS011;9382;53.242;10.438;2023-04-03T07:41:15;6.07;;;2.30;;
18505;SDS011;9382;53.242;10.438;2023-04-03T07:43:45;4.33;;;1.93;;
18505;SDS011;9382;53.242;10.438;2023-04-03T07:46:14;4.83;;;2.27;;
18505;SDS011;9382;53.242;10.438;2023-04-03T07:48:42;6.30;;;2.50;;
18505;SDS011;9382;53.242;10.438;2023-04-03T07:51:10;6.40;;;2.80;;
18505;SDS011;9382;53.242;10.438;2023-04-03T07:53:38;3.93;;;2.47;;
18505;SDS011;9382;53.242;10.438;2023-04-03T07:56:04;7.13;;;2.13;;
18505;SDS011;9382;53.242;10.438;2023-04-03T07:58:31;5.33;;;2.17;;
18505;SDS011;9382;53.242;10.438;2023-04-03T08:00:58;3.40;;;2.33;;
18505;SDS011;9382;53.242;10.438;2023-04-03T08:03:25;3.23;;;2.10;;
18505;SDS011;9382;53.242;10.438;2023-04-03T08:05:52;4.83;;;2.53;;
18505;SDS011;9382;53.242;10.438;2023-04-03T08:08:21;5.13;;;2.20;;
18505;SDS011;9382;53.242;10.438;2023-04-03T08:10:49;4.50;;;2.50;;
18505;SDS011;9382;53.242;10.438;2023-04-03T08:13:16;5.07;;;1.93;;
18505;SDS011;9382;53.242;10.438;2023-04-03T08:15:43;3.93;;;1.87;;
18505;SDS011;9382;53.242;10.438;2023-04-03T08:18:09;3.20;;;2.03;;
18505;SDS011;9382;53.242;10.438;2023-04-03T08:20:37;4.13;;;2.23;;
18505;SDS011;9382;53.242;10.438;2023-04-03T08:23:04;5.23;;;2.37;;
18505;SDS011;9382;53.242;10.438;2023-04-03T08:25:33;4.40;;;1.97;;
18505;SDS011;9382;53.242;10.438;2023-04-03T08:27:59;6.30;;;2.00;;
18505;SDS011;9382;53.242;10.438;2023-04-03T08:30:27;3.10;;;2.23;;
18505;SDS011;9382;53.242;10.438;2023-04-03T08:32:53;5.90;;;1.90;;
18505;SDS011;9382;53.242;10.438;2023-04-03T08:35:20;5.27;;;1.63;;
18505;SDS011;9382;53.242;10.438;2023-04-03T08:37:47;3.80;;;1.80;;
18505;SDS011;9382;53.242;10.438;2023-04-03T08:40:15;2.80;;;1.70;;
18505;SDS011;9382;53.242;10.438;2023-04-03T08:42:47;2.00;;;1.50;;
18505;SDS011;9382;53.242;10.438;2023-04-03T08:45:21;4.33;;;1.90;;
18505;SDS011;9382;53.242;10.438;2023-04-03T08:47:55;3.33;;;1.70;;
18505;SDS011;9382;53.242;10.438;2023-04-03T08:50:28;2.70;;;1.60;;
18505;SDS011;9382;53.242;10.438;2023-04-03T08:52:59;4.60;;;1.60;;
18505;SDS011;9382;53.242;10.438;2023-04-03T08:55:31;3.17;;;1.70;;
18505;SDS011;9382;53.242;10.438;2023-04-03T08:58:03;1.80;;;1.57;;
18505;SDS011;9382;53.242;10.438;2023-04-03T09:00:32;3.07;;;1.40;;
18505;SDS011;9382;53.242;10.438;2023-04-03T09:03:10;1.87;;;1.40;;
18505;SDS011;9382;53.242;10.438;2023-04-03T09:05:39;4.20;;;1.47;;
18505;SDS011;9382;53.242;10.438;2023-04-03T09:08:14;3.20;;;1.40;;
18505;SDS011;9382;53.242;10.438;2023-04-03T09:10:49;2.60;;;1.60;;
18505;SDS011;9382;53.242;10.438;2023-04-03T09:13:21;2.80;;;1.33;;
18505;SDS011;9382;53.242;10.438;2023-04-03T09:15:54;2.83;;;1.20;;
18505;SDS011;9382;53.242;10.438;2023-04-03T09:18:23;2.27;;;1.30;;
18505;SDS011;9382;53.242;10.438;2023-04-03T09:20:58;5.93;;;1.40;;
18505;SDS011;9382;53.242;10.438;2023-04-03T09:23:36;1.73;;;1.30;;
18505;SDS011;9382;53.242;10.438;2023-04-03T09:26:13;3.27;;;1.30;;
18505;SDS011;9382;53.242;10.438;2023-04-03T09:28:45;3.07;;;1.40;;
18505;SDS011;9382;53.242;10.438;2023-04-03T09:31:17;2.70;;;1.60;;
18505;SDS011;9382;53.242;10.438;2023-04-03T09:33:47;5.93;;;1.60;;
18505;SDS011;9382;53.242;10.438;2023-04-03T09:39:05;2.33;;;1.70;;
18505;SDS011;9382;53.242;10.438;2023-04-03T09:41:34;3.03;;;1.50;;
18505;SDS011;9382;53.242;10.438;2023-04-03T09:44:04;2.20;;;1.60;;
18505;SDS011;9382;53.242;10.438;2023-04-03T09:46:48;2.60;;;1.60;;
18505;SDS011;9382;53.242;10.438;2023-04-03T09:49:16;1.67;;;1.40;;
18505;SDS011;9382;53.242;10.438;2023-04-03T09:51:44;4.00;;;1.60;;
18505;SDS011;9382;53.242;10.438;2023-04-03T09:57:07;1.67;;;1.20;;
18505;SDS011;9382;53.242;10.438;2023-04-03T09:59:38;2.47;;;1.47;;
18505;SDS011;9382;53.242;10.438;2023-04-03T10:02:20;2.37;;;1.37;;
18505;SDS011;9382;53.242;10.438;2023-04-03T10:05:26;1.63;;;1.50;;
18505;SDS011;9382;53.242;10.438;2023-04-03T10:08:07;1.90;;;1.30;;
18505;SDS011;9382;53.242;10.438;2023-04-03T10:10:37;3.03;;;1.57;;
18505;SDS011;9382;53.242;10.438;2023-04-03T10:13:05;2.53;;;1.70;;
18505;SDS011;9382;53.242;10.438;2023-04-03T10:15:36;3.23;;;1.50;;
18505;SDS011;9382;53.242;10.438;2023-04-03T10:18:09;2.37;;;1.33;;
18505;SDS011;9382;53.242;10.438;2023-04-03T10:20:48;5.13;;;2.00;;
18505;SDS011;9382;53.242;10.438;2023-04-03T10:23:19;3.70;;;1.50;;
18505;SDS011;9382;53.242;10.438;2023-04-03T10:25:54;2.37;;;1.30;;
18505;SDS011;9382;53.242;10.438;2023-04-03T10:28:30;2.50;;;1.43;;
18505;SDS011;9382;53.242;10.438;2023-04-03T10:31:04;4.33;;;1.30;;
18505;SDS011;9382;53.242;10.438;2023-04-03T10:33:41;2.47;;;1.30;;
18505;SDS011;9382;53.242;10.438;2023-04-03T10:36:18;1.37;;;1.27;;
18505;SDS011;9382;53.242;10.438;2023-04-03T10:38:53;2.23;;;1.40;;
18505;SDS011;9382;53.242;10.438;2023-04-03T10:41:31;3.00;;;1.50;;
18505;SDS011;9382;53.242;10.438;2023-04-03T10:44:09;7.60;;;1.67;;
18505;SDS011;9382;53.242;10.438;2023-04-03T10:46:44;1.40;;;1.17;;
18505;SDS011;9382;53.242;10.438;2023-04-03T10:49:20;3.37;;;1.47;;
18505;SDS011;9382;53.242;10.438;2023-04-03T10:51:58;4.63;;;1.70;;
18505;SDS011;9382;53.242;10.438;2023-04-03T10:54:33;4.70;;;1.70;;
18505;SDS011;9382;53.242;10.438;2023-04-03T10:57:04;3.93;;;1.70;;
18505;SDS011;9382;53.242;10.438;2023-04-03T10:59:35;2.77;;;1.40;;
18505;SDS011;9382;53.242;10.438;2023-04-03T11:02:07;4.67;;;1.80;;
18505;SDS011;9382;53.242;10.438;2023-04-03T11:04:44;3.03;;;1.50;;
18505;SDS011;9382;53.242;10.438;2023-04-03T11:07:16;2.77;;;1.30;;
18505;SDS011;9382;53.242;10.438;2023-04-03T11:09:48;3.23;;;1.30;;
18505;SDS011;9382;53.242;10.438;2023-04-03T11:12:18;2.67;;;1.60;;
18505;SDS011;9382;53.242;10.438;2023-04-03T11:14:51;3.13;;;1.50;;
18505;SDS011;9382;53.242;10.438;2023-04-03T11:17:23;2.47;;;1.57;;
18505;SDS011;9382;53.242;10.438;2023-04-03T11:19:58;2.60;;;1.50;;
18505;SDS011;9382;53.242;10.438;2023-04-03T11:22:28;1.80;;;1.20;;
18505;SDS011;9382;53.242;10.438;2023-04-03T11:24:59;2.13;;;1.30;;
18505;SDS011;9382;53.242;10.438;2023-04-03T11:27:33;1.83;;;1.30;;
18505;SDS011;9382;53.242;10.438;2023-04-03T11:30:05;1.63;;;1.40;;
18505;SDS011;9382;53.242;10.438;2023-04-03T11:32:56;3.13;;;1.87;;
18505;SDS011;9382;53.242;10.438;2023-04-03T11:35:31;1.87;;;1.43;;
18505;SDS011;9382;53.242;10.438;2023-04-03T11:38:00;2.30;;;1.57;;
18505;SDS011;9382;53.242;10.438;2023-04-03T11:40:31;2.27;;;1.50;;
18505;SDS011;9382;53.242;10.438;2023-04-03T11:43:04;3.80;;;2.40;;
18505;SDS011;9382;53.242;10.438;2023-04-03T11:45:36;2.07;;;1.80;;
18505;SDS011;9382;53.242;10.438;2023-04-03T11:54:34;2.73;;;1.63;;
18505;SDS011;9382;53.242;10.438;2023-04-03T12:06:49;3.63;;;1.63;;
18505;SDS011;9382;53.242;10.438;2023-04-03T12:09:29;4.23;;;1.70;;
18505;SDS011;9382;53.242;10.438;2023-04-03T12:12:21;3.07;;;1.60;;
18505;SDS011;9382;53.242;10.438;2023-04-03T12:14:55;3.30;;;1.40;;
18505;SDS011;9382;53.242;10.438;2023-04-03T12:17:52;3.40;;;1.60;;
18505;SDS011;9382;53.242;10.438;2023-04-03T12:23:23;4.97;;;2.10;;
18505;SDS011;9382;53.242;10.438;2023-04-03T12:25:51;3.17;;;1.43;;
18505;SDS011;9382;53.242;10.438;2023-04-03T12:28:28;4.83;;;1.33;;
18505;SDS011;9382;53.242;10.438;2023-04-03T12:30:55;3.73;;;1.40;;
18505;SDS011;9382;53.242;10.438;2023-04-03T12:33:28;2.33;;;1.40;;
18505;SDS011;9382;53.242;10.438;2023-04-03T12:36:07;2.33;;;1.50;;
18505;SDS011;9382;53.242;10.438;2023-04-03T12:41:35;3.80;;;1.30;;
18505;SDS011;9382;53.242;10.438;2023-04-03T12:44:08;2.73;;;1.40;;
18505;SDS011;9382;53.242;10.438;2023-04-03T12:46:49;3.80;;;1.57;;
18505;SDS011;9382;53.242;10.438;2023-04-03T12:49:24;2.37;;;1.40;;
18505;SDS011;9382;53.242;10.438;2023-04-03T12:52:01;2.60;;;1.43;;
18505;SDS011;9382;53.242;10.438;2023-04-03T12:54:32;2.20;;;1.27;;
18505;SDS011;9382;53.242;10.438;2023-04-03T12:57:11;3.10;;;1.67;;
18505;SDS011;9382;53.242;10.438;2023-04-03T12:59:39;2.93;;;1.53;;
18505;SDS011;9382;53.242;10.438;2023-04-03T13:02:10;1.97;;;1.40;;
18505;SDS011;9382;53.242;10.438;2023-04-03T13:04:52;3.40;;;1.43;;
18505;SDS011;9382;53.242;10.438;2023-04-03T13:07:24;2.40;;;1.70;;
18505;SDS011;9382;53.242;10.438;2023-04-03T13:10:00;4.07;;;1.87;;
18505;SDS011;9382;53.242;10.438;2023-04-03T13:12:29;3.27;;;1.57;;
18505;SDS011;9382;53.242;10.438;2023-04-03T13:14:57;4.90;;;1.63;;
18505;SDS011;9382;53.242;10.438;2023-04-03T13:17:26;3.57;;;1.50;;
18505;SDS011;9382;53.242;10.438;2023-04-03T13:19:54;2.27;;;1.43;;
18505;SDS011;9382;53.242;10.438;2023-04-03T13:22:28;4.20;;;1.60;;
18505;SDS011;9382;53.242;10.438;2023-04-03T13:24:59;1.37;;;1.20;;
18505;SDS011;9382;53.242;10.438;2023-04-03T13:27:31;5.07;;;1.50;;
18505;SDS011;9382;53.242;10.438;2023-04-03T13:29:59;1.50;;;1.40;;
18505;SDS011;9382;53.242;10.438;2023-04-03T13:32:28;2.43;;;1.17;;
18505;SDS011;9382;53.242;10.438;2023-04-03T13:34:57;1.37;;;1.27;;
18505;SDS011;9382;53.242;10.438;2023-04-03T13:37:28;2.03;;;1.33;;
18505;SDS011;9382;53.242;10.438;2023-04-03T13:39:58;1.53;;;1.43;;
18505;SDS011;9382;53.242;10.438;2023-04-03T13:42:27;2.40;;;1.60;;
18505;SDS011;9382;53.242;10.438;2023-04-03T13:45:09;3.07;;;1.20;;
18505;SDS011;9382;53.242;10.438;2023-04-03T13:47:42;3.43;;;1.40;;
18505;SDS011;9382;53.242;10.438;2023-04-03T13:50:15;1.77;;;1.20;;
18505;SDS011;9382;53.242;10.438;2023-04-03T13:52:45;1.43;;;1.10;;
18505;SDS011;9382;53.242;10.438;2023-04-03T13:55:18;1.13;;;1.03;;
18505;SDS011;9382;53.242;10.438;2023-04-03T13:57:49;2.07;;;1.07;;
18505;SDS011;9382;53.242;10.438;2023-04-03T14:00:22;4.33;;;1.33;;
18505;SDS011;9382;53.242;10.438;2023-04-03T14:02:55;2.50;;;1.30;;
18505;SDS011;9382;53.242;10.438;2023-04-03T14:05:22;1.70;;;1.33;;
18505;SDS011;9382;53.242;10.438;2023-04-03T14:07:53;1.37;;;1.27;;
18505;SDS011;9382;53.242;10.438;2023-04-03T14:10:20;2.07;;;1.10;;
18505;SDS011;9382;53.242;10.438;2023-04-03T14:12:48;1.30;;;1.20;;
18505;SDS011;9382;53.242;10.438;2023-04-03T14:15:16;3.83;;;1.60;;
18505;SDS011;9382;53.242;10.438;2023-04-03T14:17:46;1.60;;;1.30;;
18505;SDS011;9382;53.242;10.438;2023-04-03T14:20:14;2.27;;;1.10;;
18505;SDS011;9382;53.242;10.438;2023-04-03T14:22:42;2.63;;;1.20;;
18505;SDS011;9382;53.242;10.438;2023-04-03T14:25:11;1.10;;;1.07;;
18505;SDS011;9382;53.242;10.438;2023-04-03T14:27:38;3.20;;;1.47;;
18505;SDS011;9382;53.242;10.438;2023-04-03T14:30:07;2.57;;;1.17;;
18505;SDS011;9382;53.242;10.438;2023-04-03T14:32:38;1.20;;;1.10;;
18505;SDS011;9382;53.242;10.438;2023-04-03T14:35:05;1.17;;;1.10;;
18505;SDS011;9382;53.242;10.438;2023-04-03T14:37:32;3.33;;;1.33;;
18505;SDS011;9382;53.242;10.438;2023-04-03T14:40:01;2.50;;;1.20;;
18505;SDS011;9382;53.242;10.438;2023-04-03T14:42:31;4.40;;;1.20;;
18505;SDS011;9382;53.242;10.438;2023-04-03T14:45:00;2.60;;;1.10;;
18505;SDS011;9382;53.242;10.438;2023-04-03T14:47:28;4.20;;;1.27;;
18505;SDS011;9382;53.242;10.438;2023-04-03T14:49:56;2.03;;;1.40;;
18505;SDS011;9382;53.242;10.438;2023-04-03T14:52:24;1.20;;;1.10;;
18505;SDS011;9382;53.242;10.438;2023-04-03T14:54:53;5.07;;;1.27;;
18505;SDS011;9382;53.242;10.438;2023-04-03T14:57:21;4.17;;;1.20;;
18505;SDS011;9382;53.242;10.438;2023-04-03T14:59:51;5.87;;;1.27;;
18505;SDS011;9382;53.242;10.438;2023-04-03T15:02:25;2.07;;;1.40;;
18505;SDS011;9382;53.242;10.438;2023-04-03T15:04:55;1.40;;;1.00;;
18505;SDS011;9382;53.242;10.438;2023-04-03T15:07:23;2.17;;;1.20;;
18505;SDS011;9382;53.242;10.438;2023-04-03T15:09:51;2.90;;;1.37;;
18505;SDS011;9382;53.242;10.438;2023-04-03T15:12:21;2.03;;;1.40;;
18505;SDS011;9382;53.242;10.438;2023-04-03T15:14:47;3.77;;;2.00;;
18505;SDS011;9382;53.242;10.438;2023-04-03T15:17:16;1.93;;;1.20;;
18505;SDS011;9382;53.242;10.438;2023-04-03T15:19:47;3.73;;;1.30;;
18505;SDS011;9382;53.242;10.438;2023-04-03T15:22:14;2.33;;;1.10;;
18505;SDS011;9382;53.242;10.438;2023-04-03T15:24:42;2.30;;;1.10;;
18505;SDS011;9382;53.242;10.438;2023-04-03T15:27:09;3.80;;;1.40;;
18505;SDS011;9382;53.242;10.438;2023-04-03T15:29:37;1.43;;;1.10;;